Time;durP1;ratioP1;P1;durP2;ratioP2;P2;SDS_P1;SDS_P2;PMS_P1;PMS_P2;Temp;Humidity;BMP_temperature;BMP_pressure;BME280_temperature;BME280_humidity;BME280_pressure;Samples;Min_cycle;Max_cycle;Signal;HPM_P1;HPM_P2
2024/01/06 00:02:10;;;;;;;13.48;12.10;;;;;;;;;;5014523;28;20021;-61
2024/01/06 00:04:36;;;;;;;15.70;13.50;;;;;;;;;;5015446;28;20026;-61
2024/01/06 00:07:02;;;;;;;15.65;13.77;;;;;;;;;;5034104;28;20043;-61
2024/01/06 00:09:28;;;;;;;12.98;11.63;;;;;;;;;;5034008;28;20067;-61
2024/01/06 00:11:54;;;;;;;12.53;11.23;;;;;;;;;;5014198;28;20037;-61
2024/01/06 00:14:20;;;;;;;12.25;10.95;;;;;;;;;;5013936;28;20468;-61
2024/01/06 00:16:46;;;;;;;11.02;9.85;;;;;;;;;;5013681;28;20022;-62
2024/01/06 00:19:12;;;;;;;12.43;11.20;;;;;;;;;;5013848;28;20524;-61
2024/01/06 00:21:38;;;;;;;12.48;11.13;;;;;;;;;;5015095;28;20026;-61
2024/01/06 00:24:04;;;;;;;11.10;10.00;;;;;;;;;;5032187;28;20105;-61
2024/01/06 00:26:30;;;;;;;11.13;9.27;;;;;;;;;;5033422;28;20033;-61
2024/01/06 00:28:56;;;;;;;11.40;10.20;;;;;;;;;;5014032;28;20018;-61
2024/01/06 00:31:22;;;;;;;9.27;8.37;;;;;;;;;;5013901;28;20073;-61
2024/01/06 00:33:48;;;;;;;10.40;9.00;;;;;;;;;;5013719;28;20380;-61
2024/01/06 00:36:14;;;;;;;10.03;9.03;;;;;;;;;;5013511;28;20029;-61
2024/01/06 00:38:40;;;;;;;8.27;7.07;;;;;;;;;;5012021;28;20018;-61
2024/01/06 00:41:06;;;;;;;8.83;7.93;;;;;;;;;;5013386;28;20135;-61
2024/01/06 00:46:36;;;;;;;7.68;6.97;;;;;;;;;;5010421;28;20352;-60
2024/01/06 00:49:02;;;;;;;10.33;7.67;;;;;;;;;;5013113;28;20034;-60
2024/01/06 00:51:28;;;;;;;8.13;7.13;;;;;;;;;;5013515;28;20115;-60
2024/01/06 00:53:54;;;;;;;6.43;5.83;;;;;;;;;;5013417;28;20040;-61
2024/01/06 00:56:20;;;;;;;5.87;5.00;;;;;;;;;;5017545;28;20116;-60
2024/01/06 00:58:46;;;;;;;5.35;4.85;;;;;;;;;;5033140;28;20113;-60
2024/01/06 01:01:12;;;;;;;5.97;5.40;;;;;;;;;;5014894;28;20030;-60
2024/01/06 01:03:38;;;;;;;6.68;5.97;;;;;;;;;;5013157;28;20028;-60
2024/01/06 01:06:04;;;;;;;6.30;5.70;;;;;;;;;;5013096;28;20034;-61
2024/01/06 01:08:30;;;;;;;6.97;5.13;;;;;;;;;;5013123;28;20020;-61
2024/01/06 01:10:56;;;;;;;5.83;5.30;;;;;;;;;;5012887;28;20038;-61
2024/01/06 01:13:23;;;;;;;6.40;5.80;;;;;;;;;;5013012;28;20030;-61
2024/01/06 01:15:49;;;;;;;6.28;5.75;;;;;;;;;;5013017;28;20113;-61
2024/01/06 01:18:15;;;;;;;7.90;6.88;;;;;;;;;;5012687;28;20424;-61
2024/01/06 01:20:44;;;;;;;6.25;5.70;;;;;;;;;;5011407;28;20033;-61
2024/01/06 01:23:10;;;;;;;7.13;6.43;;;;;;;;;;5012684;28;20437;-61
2024/01/06 01:25:36;;;;;;;6.50;5.60;;;;;;;;;;5012593;28;20060;-61
2024/01/06 01:28:02;;;;;;;7.40;6.67;;;;;;;;;;5012587;28;20026;-61
2024/01/06 01:30:28;;;;;;;8.43;5.63;;;;;;;;;;5012634;28;20026;-61
2024/01/06 01:32:54;;;;;;;7.07;6.17;;;;;;;;;;5012619;28;20030;-61
2024/01/06 01:35:20;;;;;;;5.65;4.70;;;;;;;;;;5012726;28;20372;-61
2024/01/06 01:37:46;;;;;;;5.10;4.60;;;;;;;;;;5012587;28;20104;-60
2024/01/06 01:40:12;;;;;;;7.77;5.80;;;;;;;;;;5012133;28;20041;-60
2024/01/06 01:42:38;;;;;;;5.63;4.40;;;;;;;;;;5012478;28;20036;-60
2024/01/06 01:45:05;;;;;;;3.67;3.37;;;;;;;;;;5012172;28;20029;-61
2024/01/06 01:47:31;;;;;;;4.07;3.53;;;;;;;;;;5012258;28;20044;-61
2024/01/06 01:49:57;;;;;;;5.35;4.25;;;;;;;;;;5012312;28;20026;-60
2024/01/06 01:52:32;;;;;;;3.57;3.27;;;;;;;;;;5012109;28;20033;-60
2024/01/06 01:54:59;;;;;;;3.33;3.00;;;;;;;;;;5010861;28;20459;-60
2024/01/06 01:57:25;;;;;;;3.80;3.50;;;;;;;;;;5025508;28;20068;-60
2024/01/06 01:59:53;;;;;;;3.70;3.00;;;;;;;;;;5012127;28;20029;-61
2024/01/06 02:02:19;;;;;;;3.50;3.20;;;;;;;;;;5010718;28;20029;-61
2024/01/06 02:04:45;;;;;;;3.25;2.95;;;;;;;;;;5012045;28;20026;-61
2024/01/06 02:07:14;;;;;;;4.83;3.80;;;;;;;;;;5012004;28;20088;-61
2024/01/06 02:09:40;;;;;;;3.40;3.10;;;;;;;;;;5011926;28;20022;-61
2024/01/06 02:12:06;;;;;;;3.83;3.03;;;;;;;;;;5011953;28;20519;-61
2024/01/06 02:14:32;;;;;;;3.50;3.20;;;;;;;;;;5008122;28;20034;-61
2024/01/06 02:16:59;;;;;;;3.50;3.10;;;;;;;;;;5011847;28;20026;-61
2024/01/06 02:19:25;;;;;;;3.93;3.23;;;;;;;;;;5005599;28;20033;-61
2024/01/06 02:21:53;;;;;;;4.20;3.50;;;;;;;;;;5011117;28;20705;-61
2024/01/06 02:24:19;;;;;;;4.17;3.77;;;;;;;;;;5000770;28;20392;-61
2024/01/06 02:26:45;;;;;;;3.77;3.40;;;;;;;;;;5009696;28;20034;-61
2024/01/06 02:29:11;;;;;;;3.33;3.03;;;;;;;;;;5024036;28;20018;-61
2024/01/06 02:31:37;;;;;;;3.47;3.00;;;;;;;;;;5010935;28;20480;-61
2024/01/06 02:34:03;;;;;;;3.43;3.07;;;;;;;;;;5010600;28;20026;-61
2024/01/06 02:36:29;;;;;;;3.97;3.30;;;;;;;;;;5017416;28;20611;-61
2024/01/06 02:38:54;;;;;;;4.63;3.70;;;;;;;;;;5016127;28;20041;-61
2024/01/06 02:41:20;;;;;;;4.40;4.00;;;;;;;;;;5010389;28;20369;-61
2024/01/06 02:43:47;;;;;;;4.35;3.80;;;;;;;;;;5010239;28;20073;-61
2024/01/06 02:46:13;;;;;;;4.05;3.50;;;;;;;;;;5009241;28;20041;-61
2024/01/06 02:48:39;;;;;;;4.72;4.32;;;;;;;;;;5008757;28;20034;-61
2024/01/06 02:51:05;;;;;;;4.33;3.93;;;;;;;;;;5009556;28;20026;-61
2024/01/06 02:53:31;;;;;;;6.53;4.93;;;;;;;;;;5019756;28;20057;-61
2024/01/06 02:55:57;;;;;;;4.80;4.10;;;;;;;;;;5015121;28;20052;-61
2024/01/06 02:58:23;;;;;;;4.87;4.13;;;;;;;;;;5008427;28;20425;-61
2024/01/06 03:00:49;;;;;;;5.53;5.03;;;;;;;;;;5008892;28;20037;-61
2024/01/06 03:03:15;;;;;;;4.80;4.40;;;;;;;;;;4999600;28;20026;-61
2024/01/06 03:05:41;;;;;;;4.10;3.70;;;;;;;;;;5021239;28;20526;-61
2024/01/06 03:08:07;;;;;;;5.53;5.03;;;;;;;;;;5018579;28;20028;-61
2024/01/06 03:10:34;;;;;;;5.72;5.13;;;;;;;;;;5018738;28;20448;-61
2024/01/06 03:13:00;;;;;;;5.97;5.47;;;;;;;;;;5013719;28;20112;-61
2024/01/06 03:15:26;;;;;;;6.60;5.83;;;;;;;;;;5013925;28;20384;-61
2024/01/06 03:17:52;;;;;;;6.90;6.03;;;;;;;;;;5028064;28;20021;-61
2024/01/06 03:20:18;;;;;;;6.30;5.70;;;;;;;;;;5013904;28;20036;-61
2024/01/06 03:22:44;;;;;;;5.40;4.90;;;;;;;;;;5013810;28;20132;-61
2024/01/06 03:25:10;;;;;;;6.05;5.43;;;;;;;;;;5011898;28;20455;-61
2024/01/06 03:27:36;;;;;;;5.60;5.10;;;;;;;;;;5013244;28;20033;-61
2024/01/06 03:30:03;;;;;;;6.20;5.55;;;;;;;;;;5013946;28;20022;-61
2024/01/06 03:32:47;;;;;;;6.40;5.53;;;;;;;;;;5013394;28;20065;-61
2024/01/06 03:35:13;;;;;;;6.20;5.60;;;;;;;;;;5027402;28;20084;-60
2024/01/06 03:37:39;;;;;;;5.40;4.90;;;;;;;;;;5013235;28;20092;-61
2024/01/06 03:40:06;;;;;;;7.07;6.37;;;;;;;;;;5013367;28;20054;-61
2024/01/06 03:42:32;;;;;;;8.40;7.50;;;;;;;;;;5012923;28;20444;-60
2024/01/06 03:44:58;;;;;;;8.25;7.45;;;;;;;;;;5012189;28;20028;-61
2024/01/06 03:47:24;;;;;;;8.63;7.78;;;;;;;;;;5009209;28;20026;-60
2024/01/06 03:49:50;;;;;;;9.48;8.48;;;;;;;;;;4996425;28;20037;-60
2024/01/06 03:52:16;;;;;;;10.02;9.02;;;;;;;;;;5011953;28;20064;-60
2024/01/06 03:54:42;;;;;;;8.90;8.10;;;;;;;;;;5013013;28;20116;-61
2024/01/06 03:57:08;;;;;;;10.15;9.20;;;;;;;;;;5012560;28;20219;-61
2024/01/06 03:59:34;;;;;;;9.83;8.37;;;;;;;;;;5007334;28;20137;-61
2024/01/06 04:02:00;;;;;;;9.57;8.60;;;;;;;;;;5000076;28;20030;-61
2024/01/06 04:04:26;;;;;;;8.73;7.93;;;;;;;;;;5013149;28;20515;-61
2024/01/06 04:06:52;;;;;;;11.03;9.60;;;;;;;;;;5012635;28;20107;-61
2024/01/06 04:09:18;;;;;;;11.13;9.93;;;;;;;;;;5025626;28;20030;-61
2024/01/06 04:11:44;;;;;;;11.43;10.00;;;;;;;;;;5013209;28;20434;-61
2024/01/06 04:14:10;;;;;;;11.60;10.38;;;;;;;;;;5011398;28;20026;-61
2024/01/06 04:16:36;;;;;;;14.85;12.20;;;;;;;;;;5012887;28;20028;-61
2024/01/06 04:19:02;;;;;;;9.90;8.65;;;;;;;;;;5012750;28;20160;-61
2024/01/06 04:33:42;;;;;;;11.20;9.20;;;;;;;;;;5001340;28;20121;-60
2024/01/06 04:36:08;;;;;;;10.63;9.53;;;;;;;;;;5012579;28;20445;-61
2024/01/06 04:38:34;;;;;;;11.83;10.50;;;;;;;;;;5013741;28;20032;-61
2024/01/06 04:41:00;;;;;;;10.87;9.40;;;;;;;;;;5013123;28;20042;-61
2024/01/06 04:43:26;;;;;;;13.95;10.45;;;;;;;;;;5012394;28;20439;-61
2024/01/06 04:45:52;;;;;;;11.68;10.43;;;;;;;;;;5013118;28;20025;-61
2024/01/06 04:48:18;;;;;;;12.50;11.20;;;;;;;;;;5013239;28;20045;-61
2024/01/06 04:50:44;;;;;;;12.87;11.40;;;;;;;;;;5011979;28;20068;-61
2024/01/06 04:53:10;;;;;;;11.63;10.43;;;;;;;;;;5013198;28;20037;-60
2024/01/06 04:55:35;;;;;;;12.10;10.88;;;;;;;;;;5013055;28;20116;-61
2024/01/06 04:58:01;;;;;;;13.55;12.15;;;;;;;;;;5013394;28;20068;-61
2024/01/06 05:00:27;;;;;;;13.77;12.30;;;;;;;;;;5013419;28;20026;-61
2024/01/06 05:02:53;;;;;;;15.13;13.20;;;;;;;;;;5013011;28;20029;-62
2024/01/06 05:05:19;;;;;;;12.73;11.02;;;;;;;;;;5013256;28;20120;-61
2024/01/06 05:07:45;;;;;;;13.57;12.18;;;;;;;;;;5012875;28;20034;-61
2024/01/06 05:10:11;;;;;;;13.07;11.70;;;;;;;;;;5012945;28;20113;-61
2024/01/06 05:12:38;;;;;;;18.83;14.07;;;;;;;;;;5013119;28;20030;-61
2024/01/06 05:15:04;;;;;;;15.57;13.25;;;;;;;;;;5012942;28;20472;-61
2024/01/06 05:17:30;;;;;;;14.73;13.23;;;;;;;;;;5012759;28;20028;-61
2024/01/06 05:19:56;;;;;;;15.73;12.23;;;;;;;;;;5013088;28;20459;-61
2024/01/06 05:22:22;;;;;;;14.00;12.60;;;;;;;;;;5012813;28;20101;-61
2024/01/06 05:24:48;;;;;;;14.50;12.97;;;;;;;;;;5012857;28;20159;-61
2024/01/06 05:27:14;;;;;;;13.55;10.95;;;;;;;;;;5012625;28;20434;-61
2024/01/06 05:29:40;;;;;;;15.98;13.63;;;;;;;;;;5012763;28;20109;-61
2024/01/06 05:32:07;;;;;;;15.70;14.02;;;;;;;;;;5011756;28;20034;-61
2024/01/06 05:34:33;;;;;;;15.23;13.43;;;;;;;;;;5012630;28;20022;-61
2024/01/06 05:36:59;;;;;;;17.08;14.88;;;;;;;;;;5012614;28;20032;-60
2024/01/06 05:39:25;;;;;;;17.57;15.73;;;;;;;;;;5012295;28;20049;-60
2024/01/06 05:41:51;;;;;;;16.90;15.10;;;;;;;;;;5012398;28;20021;-62
2024/01/06 05:44:17;;;;;;;18.88;16.88;;;;;;;;;;5012409;28;20026;-61
2024/01/06 05:46:43;;;;;;;17.20;15.37;;;;;;;;;;5009744;28;20487;-61
2024/01/06 05:49:10;;;;;;;19.50;16.60;;;;;;;;;;5012403;28;20034;-61
2024/01/06 05:51:36;;;;;;;19.50;17.20;;;;;;;;;;5012328;28;20029;-61
2024/01/06 05:54:02;;;;;;;24.30;20.87;;;;;;;;;;5012158;28;20037;-61
2024/01/06 05:56:28;;;;;;;25.53;21.37;;;;;;;;;;5012247;28;20033;-61
2024/01/06 05:58:56;;;;;;;25.25;21.27;;;;;;;;;;5012161;28;20026;-61
2024/01/06 06:01:22;;;;;;;26.80;22.85;;;;;;;;;;5016025;28;20021;-61
2024/01/06 06:03:49;;;;;;;25.38;22.48;;;;;;;;;;5020553;28;20026;-61
2024/01/06 06:06:15;;;;;;;25.73;22.20;;;;;;;;;;5011925;28;20053;-61
2024/01/06 06:08:42;;;;;;;26.05;22.10;;;;;;;;;;5012293;28;20034;-61
2024/01/06 06:11:11;;;;;;;26.40;22.97;;;;;;;;;;5011949;28;20034;-60
2024/01/06 06:13:38;;;;;;;28.77;22.80;;;;;;;;;;5011942;28;20070;-61
2024/01/06 06:16:04;;;;;;;28.57;23.07;;;;;;;;;;5011795;28;20026;-61
2024/01/06 06:18:30;;;;;;;25.13;22.50;;;;;;;;;;5012049;28;20021;-61
2024/01/06 06:20:56;;;;;;;23.93;21.37;;;;;;;;;;5011882;28;20048;-61
2024/01/06 06:23:22;;;;;;;26.33;22.20;;;;;;;;;;5012064;28;20507;-61
2024/01/06 06:25:48;;;;;;;27.30;22.77;;;;;;;;;;5011850;28;20033;-61
2024/01/06 06:31:36;;;;;;;21.23;18.93;;;;;;;;;;5002198;28;20168;-61
2024/01/06 06:34:02;;;;;;;23.10;20.63;;;;;;;;;;5003201;28;20022;-61
2024/01/06 06:36:29;;;;;;;24.13;20.63;;;;;;;;;;5005494;28;20272;-61
2024/01/06 06:38:57;;;;;;;27.23;21.90;;;;;;;;;;5011672;28;20472;-61
2024/01/06 06:41:23;;;;;;;23.50;20.53;;;;;;;;;;5012099;28;20053;-62
2024/01/06 06:43:50;;;;;;;26.97;21.10;;;;;;;;;;5012836;28;20380;-61
2024/01/06 06:46:16;;;;;;;23.93;20.27;;;;;;;;;;5015524;28;20097;-61
2024/01/06 06:48:42;;;;;;;25.07;21.20;;;;;;;;;;5015390;28;20018;-61
2024/01/06 06:51:08;;;;;;;22.97;20.40;;;;;;;;;;5015456;28;20100;-61
2024/01/06 06:53:34;;;;;;;22.93;19.77;;;;;;;;;;5015400;28;20344;-61
2024/01/06 06:56:00;;;;;;;23.50;20.53;;;;;;;;;;5015518;28;20037;-61
2024/01/06 06:58:26;;;;;;;23.07;20.20;;;;;;;;;;5015356;28;20102;-61
2024/01/06 07:00:54;;;;;;;25.95;21.95;;;;;;;;;;5015559;28;20021;-60
2024/01/06 07:03:20;;;;;;;29.47;24.57;;;;;;;;;;5015471;28;20090;-61
2024/01/06 07:05:45;;;;;;;29.73;23.70;;;;;;;;;;5015488;28;20065;-61
2024/01/06 07:08:14;;;;;;;28.60;22.80;;;;;;;;;;5015219;28;20032;-60
2024/01/06 07:10:40;;;;;;;29.33;24.83;;;;;;;;;;5015128;28;20041;-60
2024/01/06 07:13:06;;;;;;;36.40;28.30;;;;;;;;;;5013904;28;20025;-62
2024/01/06 07:15:32;;;;;;;29.73;25.23;;;;;;;;;;5015195;28;20030;-61
2024/01/06 07:17:58;;;;;;;28.60;23.92;;;;;;;;;;5015216;28;20022;-61
2024/01/06 07:20:24;;;;;;;30.40;24.98;;;;;;;;;;5015074;28;20034;-61
2024/01/06 07:22:50;;;;;;;29.97;25.67;;;;;;;;;;5015174;28;20117;-61
2024/01/06 07:25:16;;;;;;;31.23;26.50;;;;;;;;;;5014936;28;20388;-62
2024/01/06 07:27:42;;;;;;;32.97;27.07;;;;;;;;;;5015135;28;20025;-62
2024/01/06 07:30:08;;;;;;;29.40;23.37;;;;;;;;;;5015072;28;20426;-61
2024/01/06 07:32:34;;;;;;;29.37;25.00;;;;;;;;;;5014726;28;20030;-61
2024/01/06 07:35:02;;;;;;;30.63;24.00;;;;;;;;;;5014875;28;20475;-60
2024/01/06 07:37:28;;;;;;;28.83;23.57;;;;;;;;;;5014642;28;20049;-61
2024/01/06 07:39:54;;;;;;;24.87;22.07;;;;;;;;;;5014429;28;20045;-61
2024/01/06 07:42:20;;;;;;;25.23;22.33;;;;;;;;;;5014497;28;20014;-61
2024/01/06 07:44:46;;;;;;;26.73;22.37;;;;;;;;;;5002394;28;20334;-60
2024/01/06 07:47:12;;;;;;;28.15;21.60;;;;;;;;;;5012757;28;20040;-61
2024/01/06 07:49:37;;;;;;;26.03;22.60;;;;;;;;;;5014477;28;20022;-61
2024/01/06 07:52:04;;;;;;;28.67;23.07;;;;;;;;;;5014366;28;20022;-62
2024/01/06 07:54:30;;;;;;;24.70;21.43;;;;;;;;;;5013916;28;20026;-62
2024/01/06 07:56:56;;;;;;;23.87;20.43;;;;;;;;;;5014589;28;20050;-62
2024/01/06 07:59:23;;;;;;;24.93;21.80;;;;;;;;;;5012795;28;20029;-61
2024/01/06 08:01:49;;;;;;;25.40;21.20;;;;;;;;;;5014202;28;20033;-62
2024/01/06 08:04:15;;;;;;;28.17;23.60;;;;;;;;;;5014124;28;20021;-61
2024/01/06 08:06:41;;;;;;;28.42;23.85;;;;;;;;;;5014024;28;20124;-62
2024/01/06 08:09:08;;;;;;;27.77;22.80;;;;;;;;;;5012594;28;20022;-62
2024/01/06 08:11:34;;;;;;;27.90;22.42;;;;;;;;;;5014112;28;20025;-62
2024/01/06 08:14:00;;;;;;;30.35;24.15;;;;;;;;;;5010461;28;20081;-61
2024/01/06 08:16:26;;;;;;;29.93;24.60;;;;;;;;;;5013954;28;20104;-61
2024/01/06 08:18:52;;;;;;;30.57;24.47;;;;;;;;;;5012706;28;20040;-61
2024/01/06 08:21:18;;;;;;;29.37;23.50;;;;;;;;;;5013876;28;20030;-61
2024/01/06 08:23:44;;;;;;;30.33;24.40;;;;;;;;;;5006077;28;20026;-61
2024/01/06 08:26:10;;;;;;;30.85;26.17;;;;;;;;;;5011158;28;20033;-61
2024/01/06 08:28:39;;;;;;;35.78;26.60;;;;;;;;;;5013772;28;20037;-61
2024/01/06 08:31:05;;;;;;;32.50;26.77;;;;;;;;;;5013784;28;20037;-61
2024/01/06 08:33:31;;;;;;;31.67;25.73;;;;;;;;;;5014001;28;20022;-62
2024/01/06 08:35:57;;;;;;;33.45;25.75;;;;;;;;;;5013982;28;20037;-61
2024/01/06 08:38:23;;;;;;;30.40;24.50;;;;;;;;;;5013797;28;20018;-62
2024/01/06 08:40:50;;;;;;;35.47;27.47;;;;;;;;;;5013474;28;20403;-61
2024/01/06 08:43:16;;;;;;;35.22;26.42;;;;;;;;;;5013567;28;20335;-62
2024/01/06 08:45:42;;;;;;;31.48;25.23;;;;;;;;;;5013286;28;20030;-61
2024/01/06 08:48:08;;;;;;;34.08;26.67;;;;;;;;;;5013468;28;20113;-61
2024/01/06 08:50:34;;;;;;;29.27;23.65;;;;;;;;;;5012001;28;20033;-61
2024/01/06 08:53:00;;;;;;;31.67;26.23;;;;;;;;;;5012040;28;20033;-61
2024/01/06 08:55:26;;;;;;;36.10;26.40;;;;;;;;;;5013149;28;20073;-62
2024/01/06 08:57:52;;;;;;;36.47;25.67;;;;;;;;;;5013481;28;20448;-61
2024/01/06 09:00:18;;;;;;;30.10;23.85;;;;;;;;;;5013284;28;20065;-61
2024/01/06 09:02:44;;;;;;;34.00;25.20;;;;;;;;;;5011782;28;20096;-61
2024/01/06 09:05:10;;;;;;;31.58;25.15;;;;;;;;;;5008340;28;20034;-62
2024/01/06 09:07:36;;;;;;;27.87;23.17;;;;;;;;;;5009399;28;20030;-61
2024/01/06 09:10:02;;;;;;;37.58;27.65;;;;;;;;;;5013047;28;20041;-61
2024/01/06 09:12:29;;;;;;;34.45;27.58;;;;;;;;;;5012889;28;20029;-62
2024/01/06 09:14:55;;;;;;;33.28;25.27;;;;;;;;;;5013006;28;20032;-61
2024/01/06 09:17:22;;;;;;;31.92;23.85;;;;;;;;;;5013069;28;20034;-61
2024/01/06 09:19:48;;;;;;;36.15;28.75;;;;;;;;;;5012664;28;20044;-61
2024/01/06 09:22:14;;;;;;;38.50;28.65;;;;;;;;;;5012765;28;20022;-61
2024/01/06 09:24:40;;;;;;;40.30;29.20;;;;;;;;;;5012886;28;20051;-61
2024/01/06 09:27:06;;;;;;;37.58;28.40;;;;;;;;;;5012000;28;20610;-61
2024/01/06 09:29:32;;;;;;;42.33;30.00;;;;;;;;;;5011151;28;20034;-62
2024/01/06 09:31:58;;;;;;;36.93;29.40;;;;;;;;;;5011575;28;20029;-61
2024/01/06 09:34:24;;;;;;;35.20;27.00;;;;;;;;;;5011027;28;20101;-61
2024/01/06 09:36:50;;;;;;;36.72;28.00;;;;;;;;;;5017776;28;20104;-61
2024/01/06 09:39:17;;;;;;;37.35;29.17;;;;;;;;;;5003965;28;20366;-61
2024/01/06 09:41:43;;;;;;;40.45;29.38;;;;;;;;;;5008498;28;20507;-61
2024/01/06 09:44:11;;;;;;;34.63;27.92;;;;;;;;;;5012455;28;20104;-61
2024/01/06 09:46:43;;;;;;;34.72;27.85;;;;;;;;;;5011048;28;20427;-61
2024/01/06 09:49:09;;;;;;;33.33;26.35;;;;;;;;;;5012042;28;20029;-61
2024/01/06 09:51:37;;;;;;;26.88;22.10;;;;;;;;;;5012329;28;20057;-61
2024/01/06 09:54:07;;;;;;;29.27;24.42;;;;;;;;;;5012185;28;20018;-61
2024/01/06 09:56:34;;;;;;;29.85;23.55;;;;;;;;;;5012146;28;20720;-60
2024/01/06 09:59:00;;;;;;;28.13;22.58;;;;;;;;;;5010957;28;20049;-61
2024/01/06 10:01:26;;;;;;;31.88;24.77;;;;;;;;;;5012194;28;20105;-61
2024/01/06 10:03:52;;;;;;;28.85;24.17;;;;;;;;;;5012148;28;20053;-61
2024/01/06 10:06:18;;;;;;;29.77;24.52;;;;;;;;;;5012111;28;20487;-61
2024/01/06 10:08:45;;;;;;;32.65;25.73;;;;;;;;;;5012147;28;20033;-61
2024/01/06 10:11:11;;;;;;;32.85;26.77;;;;;;;;;;5011933;28;20049;-61
2024/01/06 10:13:38;;;;;;;32.97;25.97;;;;;;;;;;5012275;28;20061;-61
2024/01/06 10:16:04;;;;;;;32.45;26.23;;;;;;;;;;5011863;28;20106;-61
2024/01/06 10:18:31;;;;;;;31.83;25.10;;;;;;;;;;5011448;28;20022;-61
2024/01/06 10:20:57;;;;;;;32.53;26.95;;;;;;;;;;5011971;28;20034;-61
2024/01/06 10:23:24;;;;;;;31.60;25.98;;;;;;;;;;5010637;28;20049;-61
2024/01/06 10:25:56;;;;;;;29.02;24.38;;;;;;;;;;5005039;28;20088;-60
2024/01/06 10:28:23;;;;;;;24.80;21.23;;;;;;;;;;4999419;28;20056;-61
2024/01/06 10:30:50;;;;;;;25.27;22.23;;;;;;;;;;5011740;28;20030;-61
2024/01/06 10:33:16;;;;;;;34.22;26.65;;;;;;;;;;5012115;28;20447;-61
2024/01/06 10:35:43;;;;;;;33.03;25.85;;;;;;;;;;5012280;28;20030;-61
2024/01/06 10:38:09;;;;;;;30.67;25.60;;;;;;;;;;5010360;28;20085;-61
2024/01/06 10:40:35;;;;;;;30.70;24.45;;;;;;;;;;5011709;28;20064;-61
2024/01/06 10:43:01;;;;;;;34.17;27.70;;;;;;;;;;5010398;28;20033;-60
2024/01/06 10:45:29;;;;;;;33.53;27.67;;;;;;;;;;5010332;28;20041;-60
2024/01/06 10:47:55;;;;;;;35.88;27.40;;;;;;;;;;5011787;28;20026;-60
2024/01/06 10:50:22;;;;;;;36.55;28.27;;;;;;;;;;5011796;28;20033;-60
2024/01/06 10:52:48;;;;;;;34.95;25.40;;;;;;;;;;5011871;28;20064;-60
2024/01/06 10:55:20;;;;;;;38.42;29.73;;;;;;;;;;5005963;28;20053;-60
2024/01/06 10:57:46;;;;;;;39.22;28.88;;;;;;;;;;5011715;28;20030;-60
2024/01/06 11:00:13;;;;;;;39.70;28.48;;;;;;;;;;4994027;28;20032;-60
2024/01/06 11:02:42;;;;;;;38.42;27.90;;;;;;;;;;5011664;28;20464;-60
2024/01/06 11:05:10;;;;;;;39.20;28.67;;;;;;;;;;5011621;28;20491;-61
2024/01/06 11:07:36;;;;;;;36.05;28.10;;;;;;;;;;5011833;28;20034;-60
2024/01/06 11:10:03;;;;;;;39.42;30.33;;;;;;;;;;5007530;28;20038;-60
2024/01/06 11:12:29;;;;;;;37.85;28.55;;;;;;;;;;5011293;28;20022;-60
2024/01/06 11:14:55;;;;;;;38.08;28.13;;;;;;;;;;5011483;28;20030;-60
2024/01/06 11:17:40;;;;;;;36.15;28.52;;;;;;;;;;5011241;28;20517;-60
2024/01/06 11:20:06;;;;;;;38.25;27.52;;;;;;;;;;5011829;28;20026;-60
2024/01/06 11:22:33;;;;;;;35.92;28.48;;;;;;;;;;5011321;28;20030;-60
2024/01/06 11:25:11;;;;;;;35.55;27.55;;;;;;;;;;5011277;28;20026;-60
2024/01/06 11:27:57;;;;;;;39.15;28.77;;;;;;;;;;5011244;28;20044;-60
2024/01/06 11:30:23;;;;;;;32.83;25.67;;;;;;;;;;5011797;28;20029;-60
2024/01/06 11:32:52;;;;;;;33.25;26.52;;;;;;;;;;5006251;28;20813;-60
2024/01/06 11:35:19;;;;;;;32.75;24.73;;;;;;;;;;5014988;28;20028;-60
2024/01/06 11:37:45;;;;;;;33.05;27.17;;;;;;;;;;5014772;28;20022;-60
2024/01/06 11:40:46;;;;;;;31.83;25.88;;;;;;;;;;5014494;28;20096;-60
2024/01/06 11:43:12;;;;;;;26.90;21.92;;;;;;;;;;4973653;28;20031;-60
2024/01/06 11:45:41;;;;;;;24.92;22.15;;;;;;;;;;5004594;28;20152;-61
2024/01/06 11:48:08;;;;;;;23.55;20.70;;;;;;;;;;5014562;28;20050;-60
2024/01/06 11:50:35;;;;;;;32.63;25.42;;;;;;;;;;5014792;28;20425;-61
2024/01/06 11:53:02;;;;;;;32.00;24.45;;;;;;;;;;5014682;28;20028;-60
2024/01/06 11:55:28;;;;;;;29.30;25.48;;;;;;;;;;5014406;28;20157;-61
2024/01/06 11:57:56;;;;;;;33.42;26.38;;;;;;;;;;5014464;28;20092;-61
2024/01/06 12:00:22;;;;;;;35.50;28.48;;;;;;;;;;5014461;28;20054;-60
2024/01/06 12:02:48;;;;;;;32.80;26.00;;;;;;;;;;5013005;28;20029;-60
2024/01/06 12:05:15;;;;;;;33.08;26.77;;;;;;;;;;5014517;28;20373;-61
2024/01/06 12:07:42;;;;;;;33.55;25.77;;;;;;;;;;5014146;28;20511;-61
2024/01/06 12:10:08;;;;;;;32.70;26.60;;;;;;;;;;5012829;28;20022;-61
2024/01/06 12:12:34;;;;;;;32.83;26.73;;;;;;;;;;5014054;28;20124;-60
2024/01/06 12:15:00;;;;;;;31.70;26.83;;;;;;;;;;5014187;28;20026;-60
2024/01/06 12:17:30;;;;;;;31.40;26.55;;;;;;;;;;5013811;28;20022;-60
2024/01/06 12:19:56;;;;;;;32.72;26.75;;;;;;;;;;5014016;28;20057;-60
2024/01/06 12:22:22;;;;;;;31.13;26.38;;;;;;;;;;5013842;28;20495;-60
2024/01/06 12:24:51;;;;;;;34.10;26.80;;;;;;;;;;5013906;28;20036;-60
2024/01/06 12:27:21;;;;;;;29.90;24.80;;;;;;;;;;5013631;28;20507;-60
2024/01/06 12:29:48;;;;;;;34.47;26.13;;;;;;;;;;5013853;28;20202;-60
2024/01/06 12:32:13;;;;;;;32.90;26.83;;;;;;;;;;5013832;28;20429;-60
2024/01/06 12:34:39;;;;;;;28.67;24.10;;;;;;;;;;5013736;28;20040;-61
2024/01/06 12:37:07;;;;;;;29.70;25.13;;;;;;;;;;5013989;28;20040;-60
2024/01/06 12:39:33;;;;;;;31.27;25.83;;;;;;;;;;5013434;28;20033;-61
2024/01/06 12:42:00;;;;;;;30.00;24.10;;;;;;;;;;5013261;28;20084;-62
2024/01/06 12:44:27;;;;;;;30.60;24.95;;;;;;;;;;5013448;28;20452;-61
2024/01/06 12:46:53;;;;;;;31.08;25.20;;;;;;;;;;5013235;28;20038;-61
2024/01/06 12:49:19;;;;;;;32.90;26.17;;;;;;;;;;5013371;28;20387;-61
2024/01/06 12:51:45;;;;;;;28.10;23.88;;;;;;;;;;5013349;28;20026;-61
2024/01/06 12:54:11;;;;;;;30.92;25.73;;;;;;;;;;5013377;28;20026;-61
2024/01/06 12:56:37;;;;;;;32.50;26.52;;;;;;;;;;5013188;28;20034;-61
2024/01/06 12:59:03;;;;;;;29.95;25.17;;;;;;;;;;5012009;28;20052;-61
2024/01/06 13:01:29;;;;;;;30.02;23.75;;;;;;;;;;5013155;28;20109;-61
2024/01/06 13:03:55;;;;;;;27.65;23.08;;;;;;;;;;5012998;28;20018;-61
2024/01/06 13:06:21;;;;;;;29.50;23.02;;;;;;;;;;5013188;28;20037;-61
2024/01/06 13:08:47;;;;;;;24.92;22.08;;;;;;;;;;5012913;28;20511;-61
2024/01/06 13:11:13;;;;;;;26.60;22.33;;;;;;;;;;5013032;28;20030;-61
2024/01/06 13:13:39;;;;;;;32.40;25.13;;;;;;;;;;5012962;28;20026;-62
2024/01/06 13:16:05;;;;;;;31.23;25.80;;;;;;;;;;5012745;28;20381;-62
2024/01/06 13:18:32;;;;;;;28.35;24.45;;;;;;;;;;5012919;28;20029;-61
2024/01/06 13:20:58;;;;;;;33.08;26.02;;;;;;;;;;5012862;28;20021;-61
2024/01/06 13:23:24;;;;;;;28.30;23.75;;;;;;;;;;5013099;28;20145;-62
2024/01/06 13:25:50;;;;;;;23.98;21.35;;;;;;;;;;5012933;28;20400;-62
2024/01/06 13:28:17;;;;;;;26.05;20.85;;;;;;;;;;5012801;28;20472;-61
2024/01/06 13:30:43;;;;;;;25.88;20.92;;;;;;;;;;5011269;28;20022;-61
2024/01/06 13:33:10;;;;;;;24.08;20.08;;;;;;;;;;5011476;28;20398;-61
2024/01/06 13:35:37;;;;;;;24.05;20.50;;;;;;;;;;5012630;28;20080;-61
2024/01/06 13:38:04;;;;;;;28.20;24.50;;;;;;;;;;5011211;28;20376;-62
2024/01/06 13:40:30;;;;;;;29.40;24.63;;;;;;;;;;5012370;28;20053;-61
2024/01/06 13:42:56;;;;;;;30.33;25.13;;;;;;;;;;5012685;28;20329;-61
2024/01/06 13:45:23;;;;;;;29.63;25.02;;;;;;;;;;5012794;28;20021;-61
2024/01/06 13:47:48;;;;;;;27.40;22.17;;;;;;;;;;5024259;28;20084;-61
2024/01/06 13:50:16;;;;;;;29.45;24.38;;;;;;;;;;5014539;28;20022;-61
2024/01/06 13:52:43;;;;;;;28.17;24.77;;;;;;;;;;5011815;28;20022;-61
2024/01/06 13:55:10;;;;;;;30.90;25.25;;;;;;;;;;5012364;28;20113;-62
2024/01/06 13:57:41;;;;;;;28.60;24.48;;;;;;;;;;5010990;28;20029;-61
2024/01/06 14:00:07;;;;;;;30.70;24.08;;;;;;;;;;5010903;28;20342;-61
2024/01/06 14:02:33;;;;;;;29.85;24.40;;;;;;;;;;5012308;28;20061;-61
2024/01/06 14:04:59;;;;;;;27.33;23.50;;;;;;;;;;5012324;28;20033;-61
2024/01/06 14:10:29;;;;;;;27.92;24.23;;;;;;;;;;5001844;28;20033;-61
2024/01/06 14:12:55;;;;;;;31.30;27.05;;;;;;;;;;5010800;28;20384;-61
2024/01/06 14:15:21;;;;;;;31.48;26.05;;;;;;;;;;5013204;28;20029;-60
2024/01/06 14:17:49;;;;;;;31.60;26.02;;;;;;;;;;5014388;28;20045;-60
2024/01/06 14:20:17;;;;;;;31.02;25.88;;;;;;;;;;5024468;28;20472;-60
2024/01/06 14:22:44;;;;;;;33.40;27.63;;;;;;;;;;5011929;28;20471;-61
2024/01/06 14:25:10;;;;;;;33.00;26.10;;;;;;;;;;5011606;28;20026;-61
2024/01/06 14:27:36;;;;;;;33.47;27.85;;;;;;;;;;5010403;28;20030;-61
2024/01/06 14:30:02;;;;;;;33.40;27.02;;;;;;;;;;5011644;28;20018;-60
2024/01/06 14:32:29;;;;;;;31.90;26.08;;;;;;;;;;5011836;28;20029;-61
2024/01/06 14:34:55;;;;;;;31.75;26.05;;;;;;;;;;5012114;28;20029;-60
2024/01/06 14:37:21;;;;;;;28.17;24.17;;;;;;;;;;5012005;28;20014;-61
2024/01/06 14:39:47;;;;;;;29.98;25.42;;;;;;;;;;5011511;28;20049;-60
2024/01/06 14:42:13;;;;;;;32.28;26.35;;;;;;;;;;5011945;28;20017;-61